sensor_id;sensor_type;location;lat;lon;timestamp;P1;durP1;ratioP1;P2;durP2;ratioP2
33826;SDS011;20128;45.582;5.298;2023-08-17T00:01:24;2.60;;;1.73;;
33826;SDS011;20128;45.582;5.298;2023-08-17T00:03:49;4.15;;;2.40;;
33826;SDS011;20128;45.582;5.298;2023-08-17T00:06:15;3.53;;;2.45;;
33826;SDS011;20128;45.582;5.298;2023-08-17T00:08:41;9.45;;;2.58;;
33826;SDS011;20128;45.582;5.298;2023-08-17T00:11:07;4.07;;;1.90;;
33826;SDS011;20128;45.582;5.298;2023-08-17T00:13:33;5.93;;;2.00;;
33826;SDS011;20128;45.582;5.298;2023-08-17T00:15:59;3.28;;;1.90;;
33826;SDS011;20128;45.582;5.298;2023-08-17T00:18:25;4.28;;;2.72;;
33826;SDS011;20128;45.582;5.298;2023-08-17T00:20:51;5.95;;;2.05;;
33826;SDS011;20128;45.582;5.298;2023-08-17T00:23:17;3.15;;;2.00;;
33826;SDS011;20128;45.582;5.298;2023-08-17T00:25:42;4.47;;;2.40;;
33826;SDS011;20128;45.582;5.298;2023-08-17T00:28:08;6.78;;;2.30;;
33826;SDS011;20128;45.582;5.298;2023-08-17T00:30:34;4.10;;;2.05;;
33826;SDS011;20128;45.582;5.298;2023-08-17T00:33:01;2.33;;;1.90;;
33826;SDS011;20128;45.582;5.298;2023-08-17T00:35:27;5.20;;;1.95;;
33826;SDS011;20128;45.582;5.298;2023-08-17T00:37:53;4.18;;;1.90;;
33826;SDS011;20128;45.582;5.298;2023-08-17T00:40:19;4.68;;;2.50;;
33826;SDS011;20128;45.582;5.298;2023-08-17T00:42:44;5.97;;;2.40;;
33826;SDS011;20128;45.582;5.298;2023-08-17T00:45:10;4.15;;;2.45;;
33826;SDS011;20128;45.582;5.298;2023-08-17T00:47:36;4.72;;;1.95;;
33826;SDS011;20128;45.582;5.298;2023-08-17T00:50:02;6.47;;;2.45;;
33826;SDS011;20128;45.582;5.298;2023-08-17T00:52:28;3.65;;;2.10;;
33826;SDS011;20128;45.582;5.298;2023-08-17T00:54:56;2.63;;;1.88;;
33826;SDS011;20128;45.582;5.298;2023-08-17T00:57:23;4.05;;;2.22;;
33826;SDS011;20128;45.582;5.298;2023-08-17T00:59:48;2.47;;;1.73;;
33826;SDS011;20128;45.582;5.298;2023-08-17T01:02:15;3.50;;;2.50;;
33826;SDS011;20128;45.582;5.298;2023-08-17T01:04:43;6.75;;;2.20;;
33826;SDS011;20128;45.582;5.298;2023-08-17T01:07:08;4.15;;;2.42;;
33826;SDS011;20128;45.582;5.298;2023-08-17T01:09:34;4.95;;;2.25;;
33826;SDS011;20128;45.582;5.298;2023-08-17T01:12:04;6.72;;;2.63;;
33826;SDS011;20128;45.582;5.298;2023-08-17T01:15:08;6.22;;;2.55;;
33826;SDS011;20128;45.582;5.298;2023-08-17T01:18:00;3.20;;;1.73;;
33826;SDS011;20128;45.582;5.298;2023-08-17T01:20:35;5.80;;;2.35;;
33826;SDS011;20128;45.582;5.298;2023-08-17T01:23:05;6.15;;;2.17;;
33826;SDS011;20128;45.582;5.298;2023-08-17T01:25:31;5.15;;;2.97;;
33826;SDS011;20128;45.582;5.298;2023-08-17T01:28:01;7.80;;;2.65;;
33826;SDS011;20128;45.582;5.298;2023-08-17T01:30:28;10.50;;;2.63;;
33826;SDS011;20128;45.582;5.298;2023-08-17T01:32:58;3.92;;;2.30;;
33826;SDS011;20128;45.582;5.298;2023-08-17T01:35:37;3.58;;;2.70;;
33826;SDS011;20128;45.582;5.298;2023-08-17T01:38:16;2.95;;;2.30;;
33826;SDS011;20128;45.582;5.298;2023-08-17T01:40:44;4.43;;;2.30;;
33826;SDS011;20128;45.582;5.298;2023-08-17T01:43:12;4.05;;;2.42;;
33826;SDS011;20128;45.582;5.298;2023-08-17T01:45:39;2.60;;;2.03;;
33826;SDS011;20128;45.582;5.298;2023-08-17T01:48:05;4.00;;;2.58;;
33826;SDS011;20128;45.582;5.298;2023-08-17T01:50:31;5.82;;;2.03;;
33826;SDS011;20128;45.582;5.298;2023-08-17T01:52:56;3.05;;;2.22;;
33826;SDS011;20128;45.582;5.298;2023-08-17T01:55:22;2.88;;;2.17;;
33826;SDS011;20128;45.582;5.298;2023-08-17T01:57:48;3.95;;;2.15;;
33826;SDS011;20128;45.582;5.298;2023-08-17T02:00:14;4.38;;;1.90;;
33826;SDS011;20128;45.582;5.298;2023-08-17T02:02:40;5.32;;;2.83;;
33826;SDS011;20128;45.582;5.298;2023-08-17T02:05:06;6.68;;;2.33;;
33826;SDS011;20128;45.582;5.298;2023-08-17T02:07:32;6.45;;;2.40;;
33826;SDS011;20128;45.582;5.298;2023-08-17T02:09:58;7.82;;;2.63;;
33826;SDS011;20128;45.582;5.298;2023-08-17T02:12:24;3.30;;;2.00;;
33826;SDS011;20128;45.582;5.298;2023-08-17T02:14:49;3.63;;;2.35;;
33826;SDS011;20128;45.582;5.298;2023-08-17T02:17:15;4.03;;;2.35;;
33826;SDS011;20128;45.582;5.298;2023-08-17T02:19:44;5.93;;;2.22;;
33826;SDS011;20128;45.582;5.298;2023-08-17T02:22:12;4.72;;;2.35;;
33826;SDS011;20128;45.582;5.298;2023-08-17T02:24:37;6.72;;;2.60;;
33826;SDS011;20128;45.582;5.298;2023-08-17T02:27:03;4.43;;;2.03;;
33826;SDS011;20128;45.582;5.298;2023-08-17T02:29:29;17.45;;;2.38;;
33826;SDS011;20128;45.582;5.298;2023-08-17T02:31:55;3.63;;;2.67;;
33826;SDS011;20128;45.582;5.298;2023-08-17T02:34:20;4.30;;;2.38;;
33826;SDS011;20128;45.582;5.298;2023-08-17T02:36:46;4.05;;;2.33;;
33826;SDS011;20128;45.582;5.298;2023-08-17T02:39:12;4.82;;;2.08;;
33826;SDS011;20128;45.582;5.298;2023-08-17T02:41:37;4.90;;;2.53;;
33826;SDS011;20128;45.582;5.298;2023-08-17T02:44:04;4.32;;;2.20;;
33826;SDS011;20128;45.582;5.298;2023-08-17T02:46:30;4.93;;;1.98;;
33826;SDS011;20128;45.582;5.298;2023-08-17T02:48:55;3.20;;;2.65;;
33826;SDS011;20128;45.582;5.298;2023-08-17T02:51:21;3.67;;;2.15;;
33826;SDS011;20128;45.582;5.298;2023-08-17T02:53:46;11.43;;;3.03;;
33826;SDS011;20128;45.582;5.298;2023-08-17T02:56:12;5.32;;;2.58;;
33826;SDS011;20128;45.582;5.298;2023-08-17T02:58:38;5.13;;;2.10;;
33826;SDS011;20128;45.582;5.298;2023-08-17T03:01:08;3.33;;;2.42;;
33826;SDS011;20128;45.582;5.298;2023-08-17T03:03:33;8.27;;;2.13;;
33826;SDS011;20128;45.582;5.298;2023-08-17T03:06:00;5.88;;;2.30;;
33826;SDS011;20128;45.582;5.298;2023-08-17T03:08:26;2.72;;;2.00;;
33826;SDS011;20128;45.582;5.298;2023-08-17T03:10:52;2.67;;;2.05;;
33826;SDS011;20128;45.582;5.298;2023-08-17T03:13:18;5.80;;;2.20;;
33826;SDS011;20128;45.582;5.298;2023-08-17T03:15:43;4.18;;;2.22;;
33826;SDS011;20128;45.582;5.298;2023-08-17T03:18:09;4.57;;;2.22;;
33826;SDS011;20128;45.582;5.298;2023-08-17T03:20:34;5.20;;;2.50;;
33826;SDS011;20128;45.582;5.298;2023-08-17T03:23:00;3.80;;;2.40;;
33826;SDS011;20128;45.582;5.298;2023-08-17T03:25:26;8.88;;;2.58;;
33826;SDS011;20128;45.582;5.298;2023-08-17T03:27:51;5.05;;;3.00;;
33826;SDS011;20128;45.582;5.298;2023-08-17T03:30:17;5.97;;;2.50;;
33826;SDS011;20128;45.582;5.298;2023-08-17T03:32:43;10.10;;;2.60;;
33826;SDS011;20128;45.582;5.298;2023-08-17T03:35:09;3.33;;;2.55;;
33826;SDS011;20128;45.582;5.298;2023-08-17T03:37:34;7.95;;;2.80;;
33826;SDS011;20128;45.582;5.298;2023-08-17T03:40:00;7.10;;;2.78;;
33826;SDS011;20128;45.582;5.298;2023-08-17T03:42:26;6.53;;;2.83;;
33826;SDS011;20128;45.582;5.298;2023-08-17T03:44:52;6.93;;;2.67;;
33826;SDS011;20128;45.582;5.298;2023-08-17T03:47:18;10.13;;;2.65;;
33826;SDS011;20128;45.582;5.298;2023-08-17T03:49:44;8.30;;;2.55;;
33826;SDS011;20128;45.582;5.298;2023-08-17T03:52:11;6.18;;;2.95;;
33826;SDS011;20128;45.582;5.298;2023-08-17T03:54:37;5.57;;;2.40;;
33826;SDS011;20128;45.582;5.298;2023-08-17T03:57:02;6.85;;;2.65;;
33826;SDS011;20128;45.582;5.298;2023-08-17T03:59:28;4.72;;;2.30;;
33826;SDS011;20128;45.582;5.298;2023-08-17T04:01:54;7.30;;;2.75;;
33826;SDS011;20128;45.582;5.298;2023-08-17T04:04:19;2.92;;;2.50;;
33826;SDS011;20128;45.582;5.298;2023-08-17T04:06:45;4.45;;;2.30;;
33826;SDS011;20128;45.582;5.298;2023-08-17T04:09:10;5.97;;;2.63;;
33826;SDS011;20128;45.582;5.298;2023-08-17T04:11:36;5.93;;;2.80;;
33826;SDS011;20128;45.582;5.298;2023-08-17T04:14:02;5.90;;;2.38;;
33826;SDS011;20128;45.582;5.298;2023-08-17T04:16:29;8.02;;;2.85;;
33826;SDS011;20128;45.582;5.298;2023-08-17T04:18:54;6.80;;;2.70;;
33826;SDS011;20128;45.582;5.298;2023-08-17T04:21:20;6.00;;;2.90;;
33826;SDS011;20128;45.582;5.298;2023-08-17T04:23:46;5.78;;;2.67;;
33826;SDS011;20128;45.582;5.298;2023-08-17T04:26:12;5.10;;;2.60;;
33826;SDS011;20128;45.582;5.298;2023-08-17T04:28:37;5.70;;;2.58;;
33826;SDS011;20128;45.582;5.298;2023-08-17T04:31:03;5.65;;;2.80;;
33826;SDS011;20128;45.582;5.298;2023-08-17T04:33:29;4.28;;;2.97;;
33826;SDS011;20128;45.582;5.298;2023-08-17T04:35:55;4.63;;;2.67;;
33826;SDS011;20128;45.582;5.298;2023-08-17T04:38:20;5.78;;;2.90;;
33826;SDS011;20128;45.582;5.298;2023-08-17T04:40:46;4.30;;;2.60;;
33826;SDS011;20128;45.582;5.298;2023-08-17T04:43:12;8.07;;;2.70;;
33826;SDS011;20128;45.582;5.298;2023-08-17T04:45:38;4.32;;;2.42;;
33826;SDS011;20128;45.582;5.298;2023-08-17T04:48:03;4.20;;;3.05;;
33826;SDS011;20128;45.582;5.298;2023-08-17T04:50:30;5.63;;;2.60;;
33826;SDS011;20128;45.582;5.298;2023-08-17T04:52:56;4.65;;;2.47;;
33826;SDS011;20128;45.582;5.298;2023-08-17T04:55:22;5.10;;;3.00;;
33826;SDS011;20128;45.582;5.298;2023-08-17T04:57:48;6.78;;;2.65;;
33826;SDS011;20128;45.582;5.298;2023-08-17T05:00:14;5.15;;;2.50;;
33826;SDS011;20128;45.582;5.298;2023-08-17T05:02:40;8.90;;;2.70;;
33826;SDS011;20128;45.582;5.298;2023-08-17T05:05:06;9.05;;;2.65;;
33826;SDS011;20128;45.582;5.298;2023-08-17T05:07:34;7.70;;;2.72;;
33826;SDS011;20128;45.582;5.298;2023-08-17T05:10:00;8.35;;;2.90;;
33826;SDS011;20128;45.582;5.298;2023-08-17T05:12:26;6.15;;;3.00;;
33826;SDS011;20128;45.582;5.298;2023-08-17T05:14:52;13.23;;;2.60;;
33826;SDS011;20128;45.582;5.298;2023-08-17T05:17:17;10.55;;;3.10;;
33826;SDS011;20128;45.582;5.298;2023-08-17T05:19:43;9.00;;;2.80;;
33826;SDS011;20128;45.582;5.298;2023-08-17T05:22:09;5.63;;;3.58;;
33826;SDS011;20128;45.582;5.298;2023-08-17T05:24:36;10.48;;;2.50;;
33826;SDS011;20128;45.582;5.298;2023-08-17T05:27:02;4.60;;;2.75;;
33826;SDS011;20128;45.582;5.298;2023-08-17T05:29:28;6.78;;;2.60;;
33826;SDS011;20128;45.582;5.298;2023-08-17T05:31:53;6.90;;;2.85;;
33826;SDS011;20128;45.582;5.298;2023-08-17T05:34:19;6.82;;;2.95;;
33826;SDS011;20128;45.582;5.298;2023-08-17T05:36:44;10.75;;;2.70;;
33826;SDS011;20128;45.582;5.298;2023-08-17T05:39:10;15.70;;;2.92;;
33826;SDS011;20128;45.582;5.298;2023-08-17T05:41:36;10.68;;;2.42;;
33826;SDS011;20128;45.582;5.298;2023-08-17T05:44:01;8.75;;;2.42;;
33826;SDS011;20128;45.582;5.298;2023-08-17T05:46:27;7.72;;;2.60;;
33826;SDS011;20128;45.582;5.298;2023-08-17T05:48:53;6.00;;;2.63;;
33826;SDS011;20128;45.582;5.298;2023-08-17T05:51:18;9.63;;;2.55;;
33826;SDS011;20128;45.582;5.298;2023-08-17T05:53:45;9.35;;;2.40;;
33826;SDS011;20128;45.582;5.298;2023-08-17T05:56:10;4.75;;;2.30;;
33826;SDS011;20128;45.582;5.298;2023-08-17T05:58:36;4.18;;;2.20;;
33826;SDS011;20128;45.582;5.298;2023-08-17T06:01:05;8.23;;;2.38;;
33826;SDS011;20128;45.582;5.298;2023-08-17T06:03:32;5.53;;;2.10;;
33826;SDS011;20128;45.582;5.298;2023-08-17T06:05:59;4.70;;;2.33;;
33826;SDS011;20128;45.582;5.298;2023-08-17T06:08:25;4.97;;;2.25;;
33826;SDS011;20128;45.582;5.298;2023-08-17T06:10:50;4.57;;;2.58;;
33826;SDS011;20128;45.582;5.298;2023-08-17T06:13:16;6.38;;;2.47;;
33826;SDS011;20128;45.582;5.298;2023-08-17T06:15:41;11.55;;;2.75;;
33826;SDS011;20128;45.582;5.298;2023-08-17T06:18:07;8.85;;;3.33;;
33826;SDS011;20128;45.582;5.298;2023-08-17T06:20:33;8.93;;;2.65;;
33826;SDS011;20128;45.582;5.298;2023-08-17T06:22:58;11.68;;;3.10;;
33826;SDS011;20128;45.582;5.298;2023-08-17T06:25:24;8.43;;;2.63;;
33826;SDS011;20128;45.582;5.298;2023-08-17T06:27:51;9.75;;;2.88;;
33826;SDS011;20128;45.582;5.298;2023-08-17T06:30:16;5.57;;;2.83;;
33826;SDS011;20128;45.582;5.298;2023-08-17T06:32:43;8.43;;;2.58;;
33826;SDS011;20128;45.582;5.298;2023-08-17T06:35:08;7.57;;;2.53;;
33826;SDS011;20128;45.582;5.298;2023-08-17T06:37:34;4.45;;;2.35;;
33826;SDS011;20128;45.582;5.298;2023-08-17T06:40:00;4.90;;;2.53;;
33826;SDS011;20128;45.582;5.298;2023-08-17T06:42:27;7.10;;;2.75;;
33826;SDS011;20128;45.582;5.298;2023-08-17T06:44:53;7.05;;;2.80;;
33826;SDS011;20128;45.582;5.298;2023-08-17T06:47:19;12.05;;;2.63;;
33826;SDS011;20128;45.582;5.298;2023-08-17T06:49:44;8.68;;;3.05;;
33826;SDS011;20128;45.582;5.298;2023-08-17T06:52:10;11.60;;;3.45;;
33826;SDS011;20128;45.582;5.298;2023-08-17T06:54:35;10.60;;;2.80;;
33826;SDS011;20128;45.582;5.298;2023-08-17T06:57:01;7.20;;;2.60;;
33826;SDS011;20128;45.582;5.298;2023-08-17T06:59:27;13.82;;;2.47;;
33826;SDS011;20128;45.582;5.298;2023-08-17T07:01:52;8.65;;;2.25;;
33826;SDS011;20128;45.582;5.298;2023-08-17T07:04:18;7.90;;;3.00;;
33826;SDS011;20128;45.582;5.298;2023-08-17T07:06:44;7.55;;;2.72;;
33826;SDS011;20128;45.582;5.298;2023-08-17T07:09:09;13.95;;;2.45;;
33826;SDS011;20128;45.582;5.298;2023-08-17T07:11:37;10.70;;;3.28;;
33826;SDS011;20128;45.582;5.298;2023-08-17T07:14:03;6.22;;;2.67;;
33826;SDS011;20128;45.582;5.298;2023-08-17T07:16:31;6.40;;;2.72;;
33826;SDS011;20128;45.582;5.298;2023-08-17T07:18:57;9.40;;;3.33;;
33826;SDS011;20128;45.582;5.298;2023-08-17T07:21:23;7.47;;;2.47;;
33826;SDS011;20128;45.582;5.298;2023-08-17T07:23:49;3.70;;;2.40;;
33826;SDS011;20128;45.582;5.298;2023-08-17T07:26:15;9.43;;;2.35;;
33826;SDS011;20128;45.582;5.298;2023-08-17T07:28:43;3.47;;;2.38;;
33826;SDS011;20128;45.582;5.298;2023-08-17T07:31:09;12.77;;;2.88;;
33826;SDS011;20128;45.582;5.298;2023-08-17T07:33:36;9.60;;;2.90;;
33826;SDS011;20128;45.582;5.298;2023-08-17T07:36:01;15.07;;;3.30;;
33826;SDS011;20128;45.582;5.298;2023-08-17T07:38:27;11.15;;;2.75;;
33826;SDS011;20128;45.582;5.298;2023-08-17T07:40:54;5.70;;;2.65;;
33826;SDS011;20128;45.582;5.298;2023-08-17T07:43:19;10.88;;;2.85;;
33826;SDS011;20128;45.582;5.298;2023-08-17T07:45:45;11.25;;;2.70;;
33826;SDS011;20128;45.582;5.298;2023-08-17T07:48:11;5.10;;;2.72;;
33826;SDS011;20128;45.582;5.298;2023-08-17T07:50:37;15.05;;;4.38;;
33826;SDS011;20128;45.582;5.298;2023-08-17T07:53:02;8.75;;;2.67;;
33826;SDS011;20128;45.582;5.298;2023-08-17T07:55:28;5.43;;;2.60;;
33826;SDS011;20128;45.582;5.298;2023-08-17T07:57:54;5.60;;;2.40;;
33826;SDS011;20128;45.582;5.298;2023-08-17T08:00:19;15.70;;;2.88;;
33826;SDS011;20128;45.582;5.298;2023-08-17T08:02:46;9.27;;;3.03;;
33826;SDS011;20128;45.582;5.298;2023-08-17T08:05:11;8.10;;;2.70;;
33826;SDS011;20128;45.582;5.298;2023-08-17T08:07:39;8.15;;;2.75;;
33826;SDS011;20128;45.582;5.298;2023-08-17T08:10:04;15.38;;;6.00;;
33826;SDS011;20128;45.582;5.298;2023-08-17T08:12:30;16.00;;;6.75;;
33826;SDS011;20128;45.582;5.298;2023-08-17T08:14:56;12.68;;;6.25;;
33826;SDS011;20128;45.582;5.298;2023-08-17T08:17:21;6.50;;;2.72;;
33826;SDS011;20128;45.582;5.298;2023-08-17T08:19:47;5.78;;;2.88;;
33826;SDS011;20128;45.582;5.298;2023-08-17T08:22:13;10.15;;;4.18;;
33826;SDS011;20128;45.582;5.298;2023-08-17T08:24:38;5.68;;;3.13;;
33826;SDS011;20128;45.582;5.298;2023-08-17T08:27:06;4.68;;;2.35;;
33826;SDS011;20128;45.582;5.298;2023-08-17T08:29:31;8.35;;;2.65;;
33826;SDS011;20128;45.582;5.298;2023-08-17T08:31:57;6.30;;;2.53;;
33826;SDS011;20128;45.582;5.298;2023-08-17T08:34:24;8.65;;;2.72;;
33826;SDS011;20128;45.582;5.298;2023-08-17T08:36:50;11.98;;;2.97;;
33826;SDS011;20128;45.582;5.298;2023-08-17T08:39:16;6.05;;;2.40;;
33826;SDS011;20128;45.582;5.298;2023-08-17T08:41:41;8.30;;;3.42;;
33826;SDS011;20128;45.582;5.298;2023-08-17T08:44:07;8.00;;;2.50;;
33826;SDS011;20128;45.582;5.298;2023-08-17T08:46:33;9.18;;;3.28;;
33826;SDS011;20128;45.582;5.298;2023-08-17T08:49:01;5.47;;;2.50;;
33826;SDS011;20128;45.582;5.298;2023-08-17T08:51:30;12.05;;;2.78;;
33826;SDS011;20128;45.582;5.298;2023-08-17T08:54:02;9.10;;;2.80;;
33826;SDS011;20128;45.582;5.298;2023-08-17T08:56:33;10.38;;;2.90;;
33826;SDS011;20128;45.582;5.298;2023-08-17T08:59:02;10.18;;;2.60;;
33826;SDS011;20128;45.582;5.298;2023-08-17T09:01:32;11.00;;;2.65;;
33826;SDS011;20128;45.582;5.298;2023-08-17T09:03:58;11.10;;;2.35;;
33826;SDS011;20128;45.582;5.298;2023-08-17T09:06:26;9.65;;;3.13;;
33826;SDS011;20128;45.582;5.298;2023-08-17T09:08:52;7.15;;;2.78;;
33826;SDS011;20128;45.582;5.298;2023-08-17T09:11:18;5.30;;;2.92;;
33826;SDS011;20128;45.582;5.298;2023-08-17T09:13:44;8.05;;;2.90;;
33826;SDS011;20128;45.582;5.298;2023-08-17T09:16:09;7.68;;;2.78;;
33826;SDS011;20128;45.582;5.298;2023-08-17T09:18:35;8.02;;;3.10;;
33826;SDS011;20128;45.582;5.298;2023-08-17T09:21:01;4.18;;;2.50;;
33826;SDS011;20128;45.582;5.298;2023-08-17T09:23:27;9.40;;;2.53;;
33826;SDS011;20128;45.582;5.298;2023-08-17T09:25:52;6.25;;;2.17;;
33826;SDS011;20128;45.582;5.298;2023-08-17T09:28:24;7.53;;;2.40;;
33826;SDS011;20128;45.582;5.298;2023-08-17T09:30:50;5.40;;;2.83;;
33826;SDS011;20128;45.582;5.298;2023-08-17T09:33:20;4.70;;;2.50;;
33826;SDS011;20128;45.582;5.298;2023-08-17T09:35:49;3.83;;;2.45;;
33826;SDS011;20128;45.582;5.298;2023-08-17T09:38:16;4.28;;;2.42;;
33826;SDS011;20128;45.582;5.298;2023-08-17T09:40:42;4.90;;;2.72;;
33826;SDS011;20128;45.582;5.298;2023-08-17T09:43:08;4.45;;;2.25;;
33826;SDS011;20128;45.582;5.298;2023-08-17T09:45:35;10.70;;;2.42;;
33826;SDS011;20128;45.582;5.298;2023-08-17T09:48:03;13.88;;;2.95;;
33826;SDS011;20128;45.582;5.298;2023-08-17T09:50:29;7.00;;;2.40;;
33826;SDS011;20128;45.582;5.298;2023-08-17T09:52:55;9.75;;;2.83;;
33826;SDS011;20128;45.582;5.298;2023-08-17T09:55:23;9.02;;;2.53;;
33826;SDS011;20128;45.582;5.298;2023-08-17T09:57:50;9.00;;;3.13;;
33826;SDS011;20128;45.582;5.298;2023-08-17T10:00:17;4.90;;;2.22;;
33826;SDS011;20128;45.582;5.298;2023-08-17T10:02:44;6.90;;;3.03;;
33826;SDS011;20128;45.582;5.298;2023-08-17T10:05:11;7.43;;;2.42;;
33826;SDS011;20128;45.582;5.298;2023-08-17T10:07:38;6.03;;;2.47;;
33826;SDS011;20128;45.582;5.298;2023-08-17T10:10:08;9.45;;;2.60;;
33826;SDS011;20128;45.582;5.298;2023-08-17T10:12:48;7.90;;;2.58;;
33826;SDS011;20128;45.582;5.298;2023-08-17T10:15:18;11.60;;;2.53;;
33826;SDS011;20128;45.582;5.298;2023-08-17T10:17:58;7.10;;;2.15;;
33826;SDS011;20128;45.582;5.298;2023-08-17T10:20:40;7.45;;;2.40;;
33826;SDS011;20128;45.582;5.298;2023-08-17T10:23:19;3.80;;;2.55;;
33826;SDS011;20128;45.582;5.298;2023-08-17T10:25:49;8.35;;;2.42;;
33826;SDS011;20128;45.582;5.298;2023-08-17T10:28:15;10.73;;;2.95;;
33826;SDS011;20128;45.582;5.298;2023-08-17T10:30:42;9.23;;;2.30;;
33826;SDS011;20128;45.582;5.298;2023-08-17T10:33:08;8.73;;;2.97;;
33826;SDS011;20128;45.582;5.298;2023-08-17T10:35:35;5.85;;;2.72;;
33826;SDS011;20128;45.582;5.298;2023-08-17T10:38:02;7.60;;;3.72;;
33826;SDS011;20128;45.582;5.298;2023-08-17T10:40:34;5.55;;;2.47;;
33826;SDS011;20128;45.582;5.298;2023-08-17T10:43:00;9.15;;;2.80;;
33826;SDS011;20128;45.582;5.298;2023-08-17T10:50:32;18.35;;;4.93;;
33826;SDS011;20128;45.582;5.298;2023-08-17T10:53:03;10.15;;;2.67;;
33826;SDS011;20128;45.582;5.298;2023-08-17T10:55:37;5.47;;;2.55;;
33826;SDS011;20128;45.582;5.298;2023-08-17T10:58:04;10.15;;;2.72;;
33826;SDS011;20128;45.582;5.298;2023-08-17T11:00:39;8.43;;;2.88;;
33826;SDS011;20128;45.582;5.298;2023-08-17T11:03:07;6.80;;;2.53;;
33826;SDS011;20128;45.582;5.298;2023-08-17T11:08:08;7.40;;;3.17;;
33826;SDS011;20128;45.582;5.298;2023-08-17T11:11:06;11.75;;;2.50;;
33826;SDS011;20128;45.582;5.298;2023-08-17T11:13:37;9.55;;;2.40;;
33826;SDS011;20128;45.582;5.298;2023-08-17T11:16:05;14.05;;;2.33;;
33826;SDS011;20128;45.582;5.298;2023-08-17T11:18:32;13.73;;;2.92;;
33826;SDS011;20128;45.582;5.298;2023-08-17T11:20:58;10.60;;;2.50;;
33826;SDS011;20128;45.582;5.298;2023-08-17T11:23:28;11.10;;;2.75;;
33826;SDS011;20128;45.582;5.298;2023-08-17T11:25:54;11.57;;;3.00;;
33826;SDS011;20128;45.582;5.298;2023-08-17T11:28:20;7.45;;;2.40;;
33826;SDS011;20128;45.582;5.298;2023-08-17T11:30:56;10.55;;;2.75;;
33826;SDS011;20128;45.582;5.298;2023-08-17T11:33:26;10.45;;;2.50;;
33826;SDS011;20128;45.582;5.298;2023-08-17T11:35:56;8.50;;;2.00;;
33826;SDS011;20128;45.582;5.298;2023-08-17T11:38:29;12.65;;;2.78;;
33826;SDS011;20128;45.582;5.298;2023-08-17T11:40:57;8.13;;;2.00;;
33826;SDS011;20128;45.582;5.298;2023-08-17T11:43:23;9.10;;;2.22;;
33826;SDS011;20128;45.582;5.298;2023-08-17T11:45:49;6.40;;;1.73;;
33826;SDS011;20128;45.582;5.298;2023-08-17T11:48:18;7.85;;;2.00;;
33826;SDS011;20128;45.582;5.298;2023-08-17T11:50:44;5.88;;;1.80;;
33826;SDS011;20128;45.582;5.298;2023-08-17T11:53:10;6.18;;;2.00;;
33826;SDS011;20128;45.582;5.298;2023-08-17T11:55:36;6.22;;;1.80;;
33826;SDS011;20128;45.582;5.298;2023-08-17T11:58:02;7.07;;;2.33;;
33826;SDS011;20128;45.582;5.298;2023-08-17T12:00:28;8.65;;;2.13;;
33826;SDS011;20128;45.582;5.298;2023-08-17T12:03:06;9.18;;;2.50;;
33826;SDS011;20128;45.582;5.298;2023-08-17T12:05:32;9.07;;;1.90;;
33826;SDS011;20128;45.582;5.298;2023-08-17T12:08:01;13.95;;;2.75;;
33826;SDS011;20128;45.582;5.298;2023-08-17T12:10:33;3.95;;;1.98;;
33826;SDS011;20128;45.582;5.298;2023-08-17T12:13:00;6.80;;;2.25;;
33826;SDS011;20128;45.582;5.298;2023-08-17T12:15:32;5.75;;;1.85;;
33826;SDS011;20128;45.582;5.298;2023-08-17T12:17:59;5.55;;;1.90;;
33826;SDS011;20128;45.582;5.298;2023-08-17T12:20:27;9.38;;;2.08;;
33826;SDS011;20128;45.582;5.298;2023-08-17T12:22:52;6.55;;;2.17;;
33826;SDS011;20128;45.582;5.298;2023-08-17T12:25:21;10.48;;;2.25;;
33826;SDS011;20128;45.582;5.298;2023-08-17T12:27:48;5.43;;;1.90;;
33826;SDS011;20128;45.582;5.298;2023-08-17T12:30:14;5.20;;;1.73;;
33826;SDS011;20128;45.582;5.298;2023-08-17T12:32:51;7.20;;;2.28;;
33826;SDS011;20128;45.582;5.298;2023-08-17T12:35:17;8.57;;;2.10;;
33826;SDS011;20128;45.582;5.298;2023-08-17T12:37:44;3.58;;;1.92;;
33826;SDS011;20128;45.582;5.298;2023-08-17T12:40:09;5.93;;;1.92;;
33826;SDS011;20128;45.582;5.298;2023-08-17T12:42:35;6.57;;;2.38;;
33826;SDS011;20128;45.582;5.298;2023-08-17T12:45:01;6.32;;;2.03;;
33826;SDS011;20128;45.582;5.298;2023-08-17T12:47:27;5.70;;;1.80;;
33826;SDS011;20128;45.582;5.298;2023-08-17T12:49:52;4.03;;;1.50;;
33826;SDS011;20128;45.582;5.298;2023-08-17T12:52:18;8.25;;;1.42;;
33826;SDS011;20128;45.582;5.298;2023-08-17T12:54:44;5.13;;;1.58;;
33826;SDS011;20128;45.582;5.298;2023-08-17T12:57:09;5.03;;;1.42;;
33826;SDS011;20128;45.582;5.298;2023-08-17T12:59:35;6.05;;;1.23;;
33826;SDS011;20128;45.582;5.298;2023-08-17T13:02:00;5.18;;;1.38;;
33826;SDS011;20128;45.582;5.298;2023-08-17T13:04:26;9.32;;;1.77;;
33826;SDS011;20128;45.582;5.298;2023-08-17T13:06:52;6.68;;;1.70;;
33826;SDS011;20128;45.582;5.298;2023-08-17T13:09:18;5.47;;;1.73;;
33826;SDS011;20128;45.582;5.298;2023-08-17T13:11:44;4.05;;;1.15;;
33826;SDS011;20128;45.582;5.298;2023-08-17T13:14:11;6.25;;;1.67;;
33826;SDS011;20128;45.582;5.298;2023-08-17T13:16:37;3.97;;;1.83;;
33826;SDS011;20128;45.582;5.298;2023-08-17T13:19:03;4.90;;;1.92;;
33826;SDS011;20128;45.582;5.298;2023-08-17T13:21:29;2.80;;;1.75;;
33826;SDS011;20128;45.582;5.298;2023-08-17T13:23:54;5.97;;;1.85;;
33826;SDS011;20128;45.582;5.298;2023-08-17T13:26:21;7.15;;;1.63;;
33826;SDS011;20128;45.582;5.298;2023-08-17T13:28:47;5.13;;;1.98;;
33826;SDS011;20128;45.582;5.298;2023-08-17T13:31:13;3.33;;;1.60;;
33826;SDS011;20128;45.582;5.298;2023-08-17T13:33:38;6.68;;;2.05;;
33826;SDS011;20128;45.582;5.298;2023-08-17T13:36:04;5.00;;;1.88;;
33826;SDS011;20128;45.582;5.298;2023-08-17T13:38:30;3.50;;;1.73;;
33826;SDS011;20128;45.582;5.298;2023-08-17T13:40:56;7.13;;;2.05;;
33826;SDS011;20128;45.582;5.298;2023-08-17T13:43:22;9.75;;;2.33;;
33826;SDS011;20128;45.582;5.298;2023-08-17T13:45:47;5.50;;;2.10;;
33826;SDS011;20128;45.582;5.298;2023-08-17T13:48:13;5.38;;;2.08;;
33826;SDS011;20128;45.582;5.298;2023-08-17T13:50:39;6.32;;;1.65;;
33826;SDS011;20128;45.582;5.298;2023-08-17T13:53:05;7.43;;;1.95;;
33826;SDS011;20128;45.582;5.298;2023-08-17T13:55:30;8.15;;;2.03;;
33826;SDS011;20128;45.582;5.298;2023-08-17T13:57:57;4.15;;;1.95;;
33826;SDS011;20128;45.582;5.298;2023-08-17T14:00:23;6.60;;;1.67;;
33826;SDS011;20128;45.582;5.298;2023-08-17T14:02:49;7.80;;;1.83;;
33826;SDS011;20128;45.582;5.298;2023-08-17T14:05:15;3.88;;;1.73;;
33826;SDS011;20128;45.582;5.298;2023-08-17T14:07:40;6.35;;;1.63;;
33826;SDS011;20128;45.582;5.298;2023-08-17T14:10:06;3.42;;;1.70;;
33826;SDS011;20128;45.582;5.298;2023-08-17T14:12:32;6.50;;;1.60;;
33826;SDS011;20128;45.582;5.298;2023-08-17T14:14:58;5.03;;;1.40;;
33826;SDS011;20128;45.582;5.298;2023-08-17T14:17:24;4.88;;;1.63;;
33826;SDS011;20128;45.582;5.298;2023-08-17T14:19:50;4.88;;;1.70;;
33826;SDS011;20128;45.582;5.298;2023-08-17T14:22:16;10.90;;;2.47;;
33826;SDS011;20128;45.582;5.298;2023-08-17T14:24:41;6.40;;;1.77;;
33826;SDS011;20128;45.582;5.298;2023-08-17T14:27:07;2.28;;;1.58;;
33826;SDS011;20128;45.582;5.298;2023-08-17T14:29:32;4.38;;;1.75;;
33826;SDS011;20128;45.582;5.298;2023-08-17T14:31:58;7.80;;;2.13;;
33826;SDS011;20128;45.582;5.298;2023-08-17T14:34:24;3.63;;;1.90;;
33826;SDS011;20128;45.582;5.298;2023-08-17T14:36:49;3.95;;;1.92;;
33826;SDS011;20128;45.582;5.298;2023-08-17T14:39:15;4.57;;;1.42;;
33826;SDS011;20128;45.582;5.298;2023-08-17T14:41:41;5.43;;;1.70;;
33826;SDS011;20128;45.582;5.298;2023-08-17T14:44:06;2.33;;;1.27;;
33826;SDS011;20128;45.582;5.298;2023-08-17T14:46:32;5.15;;;1.40;;
33826;SDS011;20128;45.582;5.298;2023-08-17T14:48:57;2.33;;;1.40;;
33826;SDS011;20128;45.582;5.298;2023-08-17T14:51:23;5.75;;;1.50;;